createdAt,value
2018-02-19T00:00:58.094Z,10.30
2018-02-19T00:01:57.966Z,9.70
2018-02-19T00:02:57.939Z,10.70
2018-02-19T00:03:57.918Z,10.40
2018-02-19T00:04:58.025Z,9.70
2018-02-19T00:05:57.878Z,10.30
2018-02-19T00:06:57.861Z,10.30
2018-02-19T00:07:57.838Z,10.70
2018-02-19T00:08:57.814Z,9.70
2018-02-19T00:09:57.791Z,10.30
2018-02-19T00:10:57.773Z,10.60
2018-02-19T00:11:57.746Z,10.30
2018-02-19T00:12:57.869Z,10.90
2018-02-19T00:13:57.703Z,10.50
2018-02-19T00:14:57.683Z,10.00
2018-02-19T00:15:57.659Z,10.10
2018-02-19T00:16:57.646Z,9.80
2018-02-19T00:17:57.624Z,10.10
2018-02-19T00:18:57.620Z,10.00
2018-02-19T00:19:57.577Z,9.90
2018-02-19T00:20:57.554Z,9.70
2018-02-19T00:21:57.532Z,10.10
2018-02-19T00:22:57.512Z,10.20
2018-02-19T00:23:57.495Z,9.70
2018-02-19T00:24:57.482Z,9.90
2018-02-19T00:25:57.451Z,10.00
2018-02-19T00:26:57.424Z,9.60
2018-02-19T00:27:57.404Z,9.90
2018-02-19T00:28:57.380Z,9.30
2018-02-19T00:29:57.372Z,10.20
2018-02-19T00:30:57.337Z,9.60
2018-02-19T00:31:57.313Z,10.40
2018-02-19T00:32:57.297Z,10.20
2018-02-19T00:33:57.273Z,9.10
2018-02-19T00:34:57.252Z,9.90
2018-02-19T00:35:57.228Z,9.40
2018-02-19T00:36:57.209Z,9.50
2018-02-19T00:37:57.188Z,9.60
2018-02-19T00:38:57.221Z,9.50
2018-02-19T00:39:57.145Z,9.70
2018-02-19T00:40:57.121Z,9.10
2018-02-19T00:41:57.101Z,9.00
2018-02-19T00:42:57.082Z,9.30
2018-02-19T00:43:57.061Z,9.70
2018-02-19T00:44:57.034Z,9.70
2018-02-19T00:45:57.015Z,9.00
2018-02-19T00:46:56.994Z,9.30
2018-02-19T00:47:56.970Z,9.20
2018-02-19T00:48:57.008Z,8.90
2018-02-19T00:49:56.934Z,9.30
2018-02-19T00:50:56.918Z,9.30
2018-02-19T00:51:56.889Z,9.50
2018-02-19T00:52:56.863Z,8.70
2018-02-19T00:53:56.841Z,9.50
2018-02-19T00:54:56.825Z,9.60
2018-02-19T00:55:56.801Z,9.20
2018-02-19T00:56:56.774Z,10.30
2018-02-19T00:57:56.751Z,9.00
2018-02-19T00:58:56.733Z,9.10
2018-02-19T00:59:56.713Z,9.00
2018-02-19T01:00:56.688Z,9.00
2018-02-19T01:01:56.663Z,8.40
2018-02-19T01:02:56.652Z,8.70
2018-02-19T01:03:56.621Z,9.40
2018-02-19T01:04:56.600Z,9.20
2018-02-19T01:05:56.578Z,9.20
2018-02-19T01:06:56.564Z,9.70
2018-02-19T01:07:56.535Z,9.00
2018-02-19T01:08:56.520Z,9.00
2018-02-19T01:09:56.496Z,8.80
2018-02-19T01:10:56.473Z,9.00
2018-02-19T01:11:56.449Z,8.90
2018-02-19T01:12:56.430Z,8.30
2018-02-19T01:13:56.407Z,9.20
2018-02-19T01:14:56.387Z,8.90
2018-02-19T01:15:56.362Z,8.60
2018-02-19T01:16:56.343Z,8.40
2018-02-19T01:17:56.322Z,8.80
2018-02-19T01:18:56.300Z,9.10
2018-02-19T01:19:56.273Z,9.10
2018-02-19T01:20:56.255Z,9.00
2018-02-19T01:21:56.235Z,8.80
2018-02-19T01:22:56.212Z,9.10
2018-02-19T01:23:56.190Z,9.10
2018-02-19T01:24:56.166Z,8.90
2018-02-19T01:25:56.155Z,8.80
2018-02-19T01:26:56.133Z,9.00
2018-02-19T01:27:56.104Z,8.70
2018-02-19T01:28:56.080Z,9.00
2018-02-19T01:29:56.064Z,9.10
2018-02-19T01:30:56.038Z,8.50
2018-02-19T01:31:56.022Z,8.80
2018-02-19T01:32:55.995Z,9.10
2018-02-19T01:33:55.973Z,8.80
2018-02-19T01:34:55.950Z,8.90
2018-02-19T01:35:55.934Z,8.80
2018-02-19T01:36:55.912Z,8.50
2018-02-19T01:37:55.886Z,9.30
2018-02-19T01:38:55.863Z,8.80
2018-02-19T01:39:55.840Z,8.80
2018-02-19T01:40:55.821Z,9.30
2018-02-19T01:41:55.800Z,9.30
2018-02-19T01:42:55.781Z,9.00
2018-02-19T01:43:55.803Z,8.60
2018-02-19T01:44:55.733Z,8.90
2018-02-19T01:45:55.712Z,9.10
2018-02-19T01:46:55.693Z,9.20
2018-02-19T01:47:55.679Z,8.40
2018-02-19T01:48:55.892Z,8.40
2018-02-19T01:49:55.681Z,9.20
2018-02-19T01:50:55.601Z,9.00
2018-02-19T01:51:55.632Z,8.60
2018-02-19T01:52:55.559Z,8.60
2018-02-19T01:53:55.641Z,8.70
2018-02-19T01:54:55.521Z,9.30
2018-02-19T01:55:55.494Z,9.50
2018-02-19T01:56:55.473Z,8.70
2018-02-19T01:57:55.450Z,8.50
2018-02-19T01:58:55.425Z,8.70
2018-02-19T01:59:55.607Z,9.20
2018-02-19T02:00:55.385Z,8.50
2018-02-19T02:01:55.361Z,9.10
2018-02-19T02:02:55.342Z,8.50
2018-02-19T02:03:55.316Z,8.20
2018-02-19T02:04:55.300Z,8.90
2018-02-19T02:05:55.275Z,8.90
2018-02-19T02:06:55.252Z,9.40
2018-02-19T02:07:55.231Z,9.20
2018-02-19T02:08:55.211Z,8.60
2018-02-19T02:09:55.190Z,8.80
2018-02-19T02:10:55.173Z,8.50
2018-02-19T02:11:55.149Z,8.90
2018-02-19T02:12:55.122Z,8.20
2018-02-19T02:13:55.101Z,8.70
2018-02-19T02:14:55.078Z,8.70
2018-02-19T02:15:55.060Z,8.50
2018-02-19T02:16:55.041Z,8.40
2018-02-19T02:17:55.012Z,8.60
2018-02-19T02:18:55.246Z,8.50
2018-02-19T02:19:54.972Z,8.80
2018-02-19T02:20:54.949Z,8.20
2018-02-19T02:21:54.926Z,8.40
2018-02-19T02:22:54.910Z,8.30
2018-02-19T02:23:54.882Z,8.50
2018-02-19T02:24:54.862Z,8.80
2018-02-19T02:25:54.838Z,8.60
2018-02-19T02:26:54.815Z,8.50
2018-02-19T02:27:54.796Z,8.60
2018-02-19T02:28:54.776Z,8.60
2018-02-19T02:29:54.752Z,8.80
2018-02-19T02:30:54.734Z,8.40
2018-02-19T02:31:54.713Z,8.60
2018-02-19T02:32:54.690Z,7.70
2018-02-19T02:33:54.668Z,8.40
2018-02-19T02:34:54.647Z,8.60
2018-02-19T02:35:54.621Z,8.60
2018-02-19T02:36:54.599Z,8.60
2018-02-19T02:37:54.585Z,8.00
2018-02-19T02:38:54.560Z,8.50
2018-02-19T02:39:54.787Z,8.00
2018-02-19T02:40:54.515Z,8.00
2018-02-19T02:41:54.493Z,8.90
2018-02-19T02:42:54.472Z,8.70
2018-02-19T02:43:54.447Z,8.20
2018-02-19T02:44:54.425Z,8.60
2018-02-19T02:45:54.402Z,8.10
2018-02-19T02:46:54.379Z,8.20
2018-02-19T02:47:54.361Z,8.20
2018-02-19T02:48:54.338Z,8.30
2018-02-19T02:49:54.567Z,8.00
2018-02-19T02:50:54.299Z,8.90
2018-02-19T02:51:54.280Z,8.60
2018-02-19T02:52:54.252Z,8.50
2018-02-19T02:53:54.227Z,8.90
2018-02-19T02:54:54.212Z,8.80
2018-02-19T02:55:54.182Z,8.10
2018-02-19T02:56:54.162Z,8.40
2018-02-19T02:57:54.139Z,8.20
2018-02-19T02:58:54.120Z,8.50
2018-02-19T02:59:54.098Z,7.90
2018-02-19T03:00:54.077Z,8.40
2018-02-19T03:01:54.053Z,7.80
2018-02-19T03:02:54.033Z,8.10
2018-02-19T03:03:54.013Z,8.20
2018-02-19T03:04:53.989Z,8.10
2018-02-19T03:05:53.964Z,8.10
2018-02-19T03:06:53.944Z,8.60
2018-02-19T03:07:53.920Z,8.60
2018-02-19T03:08:53.900Z,8.50
2018-02-19T03:09:53.876Z,8.30
2018-02-19T03:10:53.858Z,8.40
2018-02-19T03:11:53.841Z,8.20
2018-02-19T03:12:53.812Z,7.90
2018-02-19T03:13:53.793Z,8.60
2018-02-19T03:14:53.772Z,8.30
2018-02-19T03:15:53.750Z,8.60
2018-02-19T03:16:53.727Z,8.30
2018-02-19T03:17:53.704Z,8.80
2018-02-19T03:18:53.683Z,8.40
2018-02-19T03:19:53.663Z,8.10
2018-02-19T03:20:53.640Z,8.50
2018-02-19T03:21:53.616Z,8.40
2018-02-19T03:22:53.597Z,8.20
2018-02-19T03:23:53.572Z,7.90
2018-02-19T03:24:53.552Z,8.10
2018-02-19T03:25:53.782Z,7.60
2018-02-19T03:26:53.509Z,8.20
2018-02-19T03:27:53.488Z,8.30
2018-02-19T03:28:53.463Z,8.10
2018-02-19T03:29:53.442Z,8.40
2018-02-19T03:30:53.426Z,8.40
2018-02-19T03:31:53.399Z,8.10
2018-02-19T03:32:53.378Z,8.60
2018-02-19T03:33:53.354Z,8.40
2018-02-19T03:34:53.333Z,8.20
2018-02-19T03:35:53.314Z,8.00
2018-02-19T03:36:53.290Z,8.00
2018-02-19T03:37:53.267Z,8.10
2018-02-19T03:38:53.245Z,7.80
2018-02-19T03:39:53.223Z,7.80
2018-02-19T03:40:53.202Z,8.10
2018-02-19T03:41:53.180Z,8.20
2018-02-19T03:42:53.154Z,8.10
2018-02-19T03:43:53.133Z,7.90
2018-02-19T03:44:53.115Z,7.60
2018-02-19T03:45:53.343Z,8.70
2018-02-19T03:46:53.069Z,7.90
2018-02-19T03:47:53.054Z,8.10
2018-02-19T03:48:53.022Z,8.60
2018-02-19T03:49:53.002Z,7.90
2018-02-19T03:50:52.983Z,8.40
2018-02-19T03:51:52.962Z,8.20
2018-02-19T03:52:52.938Z,8.20
2018-02-19T03:53:52.914Z,8.60
2018-02-19T03:54:53.906Z,8.30
2018-02-19T03:55:52.872Z,8.50
2018-02-19T03:56:52.852Z,8.50
2018-02-19T03:57:52.833Z,9.00
2018-02-19T03:58:52.810Z,8.60
2018-02-19T03:59:52.784Z,9.40
2018-02-19T04:00:52.765Z,8.70
2018-02-19T04:01:52.743Z,8.40
2018-02-19T04:02:52.718Z,8.10
2018-02-19T04:03:52.703Z,8.50
2018-02-19T04:04:52.672Z,8.20
2018-02-19T04:05:52.657Z,8.10
2018-02-19T04:06:52.634Z,8.80
2018-02-19T04:07:52.607Z,8.60
2018-02-19T04:08:52.586Z,8.40
2018-02-19T04:09:52.563Z,8.40
2018-02-19T04:10:52.542Z,8.50
2018-02-19T04:11:52.775Z,8.90
2018-02-19T04:12:52.503Z,8.70
2018-02-19T04:13:52.480Z,8.80
2018-02-19T04:14:53.158Z,8.10
2018-02-19T04:15:52.433Z,8.60
2018-02-19T04:16:52.464Z,9.40
2018-02-19T04:17:52.393Z,8.80
2018-02-19T04:18:52.370Z,8.60
2018-02-19T04:19:52.346Z,9.00
2018-02-19T04:20:52.375Z,8.80
2018-02-19T04:21:52.552Z,8.60
2018-02-19T04:22:52.349Z,8.80
2018-02-19T04:23:52.258Z,9.30
2018-02-19T04:24:52.249Z,8.80
2018-02-19T04:25:52.214Z,8.80
2018-02-19T04:26:52.333Z,9.30
2018-02-19T04:27:52.173Z,8.50
2018-02-19T04:28:52.168Z,9.30
2018-02-19T04:29:52.125Z,9.30
2018-02-19T04:30:52.412Z,8.60
2018-02-19T04:31:52.086Z,9.00
2018-02-19T04:32:52.138Z,9.00
2018-02-19T04:33:52.042Z,9.00
2018-02-19T04:34:52.116Z,9.50
2018-02-19T04:35:51.996Z,9.10
2018-02-19T04:36:52.723Z,9.30
2018-02-19T04:37:51.949Z,8.90
2018-02-19T04:38:51.929Z,9.70
2018-02-19T04:39:51.905Z,9.90
2018-02-19T04:40:52.006Z,9.20
2018-02-19T04:41:51.864Z,10.50
2018-02-19T04:43:51.814Z,10.20
2018-02-19T04:44:51.795Z,10.20
2018-02-19T04:45:51.774Z,10.30
2018-02-19T04:46:51.755Z,10.10
2018-02-19T04:47:51.726Z,10.00
2018-02-19T04:48:51.705Z,10.10
2018-02-19T04:49:51.684Z,10.40
2018-02-19T04:50:51.661Z,10.40
2018-02-19T04:51:51.638Z,10.90
2018-02-19T04:52:51.625Z,10.50
2018-02-19T04:53:51.600Z,10.50
2018-02-19T04:54:51.574Z,10.80
2018-02-19T04:55:51.552Z,10.40
2018-02-19T04:56:51.535Z,10.60
2018-02-19T04:57:51.504Z,11.00
2018-02-19T04:58:51.483Z,10.60
2018-02-19T04:59:51.465Z,11.00
2018-02-19T05:00:51.441Z,11.50
2018-02-19T05:01:51.416Z,11.10
2018-02-19T05:02:51.450Z,11.00
2018-02-19T05:03:51.378Z,11.30
2018-02-19T05:04:51.354Z,11.60
2018-02-19T05:05:51.329Z,12.10
2018-02-19T05:06:51.312Z,11.30
2018-02-19T05:07:51.285Z,11.50
2018-02-19T05:08:51.264Z,11.40
2018-02-19T05:09:51.244Z,11.10
2018-02-19T05:10:51.222Z,11.70
2018-02-19T05:11:51.196Z,11.70
2018-02-19T05:12:51.174Z,11.60
2018-02-19T05:13:51.159Z,12.30
2018-02-19T05:14:51.288Z,11.60
2018-02-19T05:15:51.107Z,12.10
2018-02-19T05:16:51.123Z,11.20
2018-02-19T05:17:51.311Z,12.00
2018-02-19T05:18:51.083Z,12.80
2018-02-19T05:19:51.018Z,12.20
2018-02-19T05:20:50.995Z,12.20
2018-02-19T05:21:50.973Z,12.20
2018-02-19T05:22:50.966Z,12.00
2018-02-19T05:23:50.933Z,12.10
2018-02-19T05:24:50.908Z,12.40
2018-02-19T05:25:50.886Z,12.10
2018-02-19T05:26:50.863Z,12.80
2018-02-19T05:27:50.843Z,12.20
2018-02-19T05:28:50.819Z,12.90
2018-02-19T05:29:50.795Z,13.30
2018-02-19T05:30:50.775Z,13.70
2018-02-19T05:31:50.749Z,13.40
2018-02-19T05:32:50.734Z,12.50
2018-02-19T05:33:50.705Z,13.10
2018-02-19T05:34:50.685Z,13.20
2018-02-19T05:35:50.663Z,13.10
2018-02-19T05:36:50.642Z,14.10
2018-02-19T05:37:50.620Z,13.60
2018-02-19T05:38:50.595Z,14.10
2018-02-19T05:39:50.572Z,13.80
2018-02-19T05:40:50.556Z,14.20
2018-02-19T05:41:50.530Z,14.60
2018-02-19T05:42:50.820Z,14.60
2018-02-19T05:43:50.502Z,13.90
2018-02-19T05:44:50.462Z,14.20
2018-02-19T05:45:50.445Z,14.10
2018-02-19T05:46:50.414Z,15.40
2018-02-19T05:47:50.392Z,14.00
2018-02-19T05:48:50.368Z,14.60
2018-02-19T05:49:50.349Z,14.90
2018-02-19T05:50:50.329Z,15.90
2018-02-19T05:51:50.304Z,15.00
2018-02-19T05:52:50.280Z,13.90
2018-02-19T05:53:50.363Z,14.30
2018-02-19T05:54:50.239Z,14.90
2018-02-19T05:55:50.270Z,14.70
2018-02-19T05:56:50.194Z,14.60
2018-02-19T05:57:50.170Z,15.70
2018-02-19T05:58:50.145Z,15.20
2018-02-19T05:59:50.175Z,15.60
2018-02-19T06:00:50.111Z,15.30
2018-02-19T06:01:50.084Z,15.60
2018-02-19T06:02:50.059Z,15.10
2018-02-19T06:03:50.336Z,15.30
2018-02-19T06:04:50.013Z,16.00
2018-02-19T06:05:50.049Z,14.80
2018-02-19T06:06:49.966Z,14.50
2018-02-19T06:07:50.044Z,15.50
2018-02-19T06:08:49.932Z,15.30
2018-02-19T06:09:50.148Z,15.20
2018-02-19T06:10:49.877Z,15.40
2018-02-19T06:11:49.958Z,14.70
2018-02-19T06:12:49.833Z,15.40
2018-02-19T06:13:49.894Z,15.50
2018-02-19T06:14:49.790Z,15.60
2018-02-19T06:15:49.920Z,15.50
2018-02-19T06:16:49.743Z,15.30
2018-02-19T06:17:49.796Z,15.20
2018-02-19T06:18:49.700Z,15.30
2018-02-19T06:19:49.677Z,15.10
2018-02-19T06:20:49.653Z,15.60
2018-02-19T06:21:49.635Z,15.40
2018-02-19T06:22:49.608Z,14.70
2018-02-19T06:23:49.625Z,15.40
2018-02-19T06:24:49.564Z,15.20
2018-02-19T06:25:49.628Z,15.00
2018-02-19T06:26:49.519Z,14.80
2018-02-19T06:27:49.496Z,15.30
2018-02-19T06:28:49.471Z,14.80
2018-02-19T06:29:49.549Z,15.20
2018-02-19T06:30:49.684Z,15.30
2018-02-19T06:31:49.409Z,14.70
2018-02-19T06:32:49.388Z,15.30
2018-02-19T06:33:49.461Z,15.70
2018-02-19T06:34:49.342Z,15.30
2018-02-19T06:35:49.377Z,15.70
2018-02-19T06:36:49.300Z,16.20
2018-02-19T06:37:49.281Z,15.10
2018-02-19T06:38:49.253Z,15.20
2018-02-19T06:39:49.233Z,14.80
2018-02-19T06:40:49.207Z,14.90
2018-02-19T06:41:49.181Z,15.30
2018-02-19T06:42:49.165Z,15.30
2018-02-19T06:43:49.140Z,16.30
2018-02-19T06:44:49.138Z,14.70
2018-02-19T06:45:49.092Z,15.00
2018-02-19T06:46:49.070Z,15.50
2018-02-19T06:47:49.052Z,14.90
2018-02-19T06:48:49.025Z,15.00
2018-02-19T06:49:49.008Z,15.30
2018-02-19T06:50:48.980Z,14.60
2018-02-19T06:51:48.956Z,15.00
2018-02-19T06:52:48.939Z,15.00
2018-02-19T06:53:48.915Z,15.00
2018-02-19T06:54:48.911Z,14.30
2018-02-19T06:55:48.875Z,15.10
2018-02-19T06:56:48.846Z,14.90
2018-02-19T06:57:48.826Z,14.70
2018-02-19T06:58:48.803Z,14.40
2018-02-19T06:59:48.778Z,14.70
2018-02-19T07:00:48.759Z,15.50
2018-02-19T07:01:48.740Z,14.50
2018-02-19T07:02:48.716Z,14.40
2018-02-19T07:03:48.695Z,15.10
2018-02-19T07:04:48.671Z,14.40
2018-02-19T07:05:48.648Z,14.70
2018-02-19T07:06:48.626Z,14.30
2018-02-19T07:07:48.601Z,15.10
2018-02-19T07:08:48.587Z,14.60
2018-02-19T07:09:48.563Z,14.20
2018-02-19T07:10:48.537Z,14.70
2018-02-19T07:11:48.515Z,14.70
2018-02-19T07:12:48.495Z,14.70
2018-02-19T07:13:48.470Z,14.50
2018-02-19T07:14:48.446Z,14.30
2018-02-19T07:15:48.426Z,14.90
2018-02-19T07:16:48.540Z,14.60
2018-02-19T07:17:48.386Z,14.50
2018-02-19T07:18:48.361Z,14.80
2018-02-19T07:19:48.342Z,14.90
2018-02-19T07:20:48.315Z,14.90
2018-02-19T07:21:48.296Z,14.50
2018-02-19T07:22:48.274Z,15.30
2018-02-19T07:23:48.252Z,14.00
2018-02-19T07:24:48.228Z,14.90
2018-02-19T07:25:48.219Z,15.00
2018-02-19T07:26:48.184Z,14.50
2018-02-19T07:27:48.161Z,14.20
2018-02-19T07:28:48.142Z,14.50
2018-02-19T07:29:48.116Z,13.40
2018-02-19T07:30:48.094Z,14.30
2018-02-19T07:31:48.079Z,14.00
2018-02-19T07:32:48.050Z,14.50
2018-02-19T07:33:48.058Z,14.30
2018-02-19T07:34:48.007Z,14.70
2018-02-19T07:35:48.019Z,16.40
2018-02-19T07:36:48.016Z,16.10
2018-02-19T07:37:47.956Z,17.10
2018-02-19T07:38:47.921Z,17.80
2018-02-19T07:39:47.898Z,21.40
2018-02-19T07:40:47.881Z,21.70
2018-02-19T07:41:47.854Z,20.40
2018-02-19T07:42:47.834Z,19.20
2018-02-19T07:43:47.823Z,16.10
2018-02-19T07:44:47.845Z,17.60
2018-02-19T07:45:47.767Z,21.40
2018-02-19T07:46:47.746Z,17.30
2018-02-19T07:47:47.726Z,19.70
2018-02-19T07:48:47.716Z,22.30
2018-02-19T07:49:47.685Z,19.40
2018-02-19T07:50:47.665Z,22.80
2018-02-19T07:51:47.641Z,23.00
2018-02-19T07:52:47.671Z,17.60
2018-02-19T07:53:47.597Z,14.30
2018-02-19T07:54:47.625Z,15.80
2018-02-19T07:55:47.555Z,17.70
2018-02-19T07:56:47.530Z,17.10
2018-02-19T07:57:47.515Z,16.50
2018-02-19T07:58:47.490Z,16.00
2018-02-19T07:59:47.487Z,22.20
2018-02-19T08:00:47.446Z,15.10
2018-02-19T08:01:47.426Z,18.90
2018-02-19T08:02:47.411Z,16.30
2018-02-19T08:03:47.380Z,17.90
2018-02-19T08:04:47.359Z,15.30
2018-02-19T08:05:47.340Z,16.90
2018-02-19T08:06:47.316Z,18.10
2018-02-19T08:07:47.297Z,17.70
2018-02-19T08:08:47.279Z,17.30
2018-02-19T08:09:47.257Z,17.40
2018-02-19T08:10:47.231Z,17.40
2018-02-19T08:11:47.214Z,16.50
2018-02-19T08:12:47.194Z,14.80
2018-02-19T08:13:47.167Z,15.00
2018-02-19T08:14:47.146Z,15.60
2018-02-19T08:15:47.124Z,17.50
2018-02-19T08:16:47.100Z,17.70
2018-02-19T08:17:47.085Z,16.20
2018-02-19T08:18:47.062Z,16.80
2018-02-19T08:19:47.038Z,15.40
2018-02-19T08:20:47.019Z,15.70
2018-02-19T08:21:46.999Z,15.00
2018-02-19T08:22:46.978Z,14.30
2018-02-19T08:23:46.957Z,16.00
2018-02-19T08:24:46.939Z,17.30
2018-02-19T08:25:46.919Z,14.80
2018-02-19T08:26:46.895Z,39.10
2018-02-19T08:27:46.872Z,23.50
2018-02-19T08:28:46.855Z,25.40
2018-02-19T08:29:46.833Z,29.00
2018-02-19T08:30:47.214Z,27.30
2018-02-19T08:31:46.796Z,24.60
2018-02-19T08:32:46.768Z,20.20
2018-02-19T08:33:46.750Z,15.30
2018-02-19T08:34:46.723Z,14.80
2018-02-19T08:35:46.705Z,15.20
2018-02-19T08:36:46.685Z,13.90
2018-02-19T08:37:46.666Z,14.00
2018-02-19T08:38:46.646Z,15.50
2018-02-19T08:39:46.624Z,18.30
2018-02-19T08:40:46.602Z,16.50
2018-02-19T08:41:46.585Z,15.70
2018-02-19T08:42:46.563Z,15.80
2018-02-19T08:43:46.541Z,14.70
2018-02-19T08:44:46.524Z,14.30
2018-02-19T08:45:46.500Z,14.20
2018-02-19T08:46:46.488Z,14.10
2018-02-19T08:47:46.463Z,14.50
2018-02-19T08:48:46.445Z,13.80
2018-02-19T08:49:46.430Z,14.30
2018-02-19T08:50:46.405Z,14.40
2018-02-19T08:51:46.380Z,14.70
2018-02-19T08:52:46.364Z,14.50
2018-02-19T08:53:46.390Z,14.60
2018-02-19T08:54:46.471Z,14.60
2018-02-19T08:55:46.304Z,14.40
2018-02-19T08:56:46.283Z,15.70
2018-02-19T08:57:46.262Z,18.40
2018-02-19T08:58:46.252Z,17.20
2018-02-19T08:59:46.222Z,16.70
2018-02-19T09:00:46.210Z,17.10
2018-02-19T09:01:46.184Z,16.30
2018-02-19T09:02:46.178Z,15.00
2018-02-19T09:03:46.144Z,16.00
2018-02-19T09:04:46.134Z,14.80
2018-02-19T09:05:46.130Z,15.80
2018-02-19T09:06:46.229Z,16.40
2018-02-19T09:07:46.073Z,15.60
2018-02-19T09:08:46.050Z,15.90
2018-02-19T09:09:46.030Z,15.80
2018-02-19T09:10:46.016Z,17.50
2018-02-19T09:11:46.000Z,16.40
2018-02-19T09:12:45.976Z,16.90
2018-02-19T09:13:45.955Z,15.60
2018-02-19T09:14:45.937Z,16.40
2018-02-19T09:15:45.915Z,15.30
2018-02-19T09:16:45.896Z,14.10
2018-02-19T09:17:45.885Z,15.10
2018-02-19T09:18:45.860Z,16.00
2018-02-19T09:19:45.842Z,15.60
2018-02-19T09:20:45.822Z,14.90
2018-02-19T09:21:45.804Z,15.60
2018-02-19T09:22:45.804Z,15.00
2018-02-19T09:23:45.765Z,14.90
2018-02-19T09:24:45.745Z,14.10
2018-02-19T09:25:45.730Z,14.30
2018-02-19T09:26:45.710Z,15.90
2018-02-19T09:27:45.941Z,15.40
2018-02-19T09:28:45.673Z,17.20
2018-02-19T09:29:45.652Z,15.20
2018-02-19T09:30:45.633Z,14.60
2018-02-19T09:31:45.621Z,14.40
2018-02-19T09:32:45.598Z,14.40
2018-02-19T09:33:45.582Z,15.50
2018-02-19T09:34:45.562Z,15.40
2018-02-19T09:35:45.542Z,14.50
2018-02-19T09:36:45.526Z,14.60
2018-02-19T09:37:45.506Z,15.50
2018-02-19T09:38:45.490Z,14.80
2018-02-19T09:39:45.470Z,14.60
2018-02-19T09:40:45.456Z,15.40
2018-02-19T09:41:45.466Z,16.10
2018-02-19T09:42:45.416Z,15.10
2018-02-19T09:43:45.397Z,15.00
2018-02-19T09:44:45.384Z,15.00
2018-02-19T09:45:45.359Z,15.00
2018-02-19T09:46:45.350Z,15.20
2018-02-19T09:47:45.350Z,15.80
2018-02-19T09:48:45.308Z,14.30
2018-02-19T09:49:45.288Z,14.50
2018-02-19T09:50:45.269Z,15.60
2018-02-19T09:51:45.259Z,16.70
2018-02-19T09:52:45.233Z,14.90
2018-02-19T09:53:45.216Z,14.80
2018-02-19T09:54:45.201Z,15.00
2018-02-19T09:55:45.183Z,14.80
2018-02-19T09:56:45.163Z,14.30
2018-02-19T09:57:45.153Z,14.50
2018-02-19T09:58:45.131Z,14.20
2018-02-19T09:59:45.112Z,16.80
2018-02-19T10:00:45.092Z,15.40
2018-02-19T10:01:45.076Z,13.90
2018-02-19T10:02:45.060Z,15.00
2018-02-19T10:03:45.045Z,14.60
2018-02-19T10:04:45.029Z,15.20
2018-02-19T10:05:45.017Z,15.20
2018-02-19T10:06:44.996Z,14.60
2018-02-19T10:07:44.986Z,15.20
2018-02-19T10:08:44.959Z,14.10
2018-02-19T10:09:44.942Z,14.80
2018-02-19T10:10:44.928Z,14.50
2018-02-19T10:11:44.909Z,15.30
2018-02-19T10:12:44.894Z,15.30
2018-02-19T10:13:44.879Z,14.90
2018-02-19T10:14:44.866Z,15.00
2018-02-19T10:15:44.849Z,14.90
2018-02-19T10:16:44.835Z,16.00
2018-02-19T10:17:44.818Z,13.90
2018-02-19T10:18:44.814Z,14.20
2018-02-19T10:19:44.790Z,14.60
2018-02-19T10:20:44.772Z,14.90
2018-02-19T10:21:44.756Z,14.20
2018-02-19T10:22:44.745Z,14.20
2018-02-19T10:23:44.726Z,14.40
2018-02-19T10:24:44.713Z,14.50
2018-02-19T10:25:44.702Z,14.60
2018-02-19T10:26:44.685Z,14.40
2018-02-19T10:27:44.676Z,16.80
2018-02-19T10:28:44.656Z,16.30
2018-02-19T10:29:44.682Z,14.40
2018-02-19T10:30:44.630Z,14.70
2018-02-19T10:31:44.616Z,15.00
2018-02-19T10:32:44.607Z,14.00
2018-02-19T10:33:44.594Z,13.90
2018-02-19T10:34:44.591Z,14.80
2018-02-19T10:35:44.564Z,14.30
2018-02-19T10:36:44.555Z,14.40
2018-02-19T10:37:44.545Z,14.80
2018-02-19T10:38:44.531Z,13.80
2018-02-19T10:39:44.522Z,14.00
2018-02-19T10:40:44.514Z,14.00
2018-02-19T10:41:44.499Z,14.90
2018-02-19T10:42:44.494Z,13.90
2018-02-19T10:43:44.491Z,13.90
2018-02-19T10:44:44.493Z,13.50
2018-02-19T10:45:44.461Z,13.70
2018-02-19T10:46:44.451Z,13.20
2018-02-19T10:47:44.446Z,13.00
2018-02-19T10:48:44.437Z,13.50
2018-02-19T10:49:44.434Z,14.00
2018-02-19T10:50:44.424Z,13.30
2018-02-19T10:51:44.418Z,14.30
2018-02-19T10:52:44.446Z,13.40
2018-02-19T10:53:44.397Z,13.30
2018-02-19T10:54:44.398Z,13.60
2018-02-19T10:55:44.382Z,13.30
2018-02-19T10:56:44.380Z,13.70
2018-02-19T10:57:44.365Z,13.20
2018-02-19T10:58:44.614Z,13.50
2018-02-19T10:59:44.356Z,12.60
2018-02-19T11:00:44.350Z,13.20
2018-02-19T11:01:44.341Z,12.70
2018-02-19T11:02:44.340Z,13.10
2018-02-19T11:03:44.585Z,12.60
2018-02-19T11:04:44.326Z,13.10
2018-02-19T11:05:44.324Z,13.80
2018-02-19T11:06:44.322Z,14.10
2018-02-19T11:07:44.312Z,13.20
2018-02-19T11:08:44.562Z,12.90
2018-02-19T11:09:44.311Z,13.80
2018-02-19T11:10:44.303Z,12.70
2018-02-19T11:11:44.295Z,12.40
2018-02-19T11:12:44.290Z,12.30
2018-02-19T11:13:44.289Z,12.90
2018-02-19T11:14:44.282Z,12.40
2018-02-19T11:15:44.348Z,12.30
2018-02-19T11:16:44.272Z,12.70
2018-02-19T11:17:44.265Z,13.20
2018-02-19T11:18:44.468Z,13.00
2018-02-19T11:19:44.317Z,13.60
2018-02-19T11:20:44.251Z,13.30
2018-02-19T11:21:44.249Z,11.90
2018-02-19T11:22:44.249Z,13.20
2018-02-19T11:23:44.387Z,11.70
2018-02-19T11:24:44.233Z,11.70
2018-02-19T11:25:44.276Z,12.30
2018-02-19T11:26:44.220Z,11.90
2018-02-19T11:27:44.216Z,11.70
2018-02-19T11:28:44.208Z,12.10
2018-02-19T11:29:44.205Z,11.40
2018-02-19T11:30:44.204Z,11.50
2018-02-19T11:31:44.192Z,11.00
2018-02-19T11:32:44.186Z,12.10
2018-02-19T11:33:44.188Z,12.10
2018-02-19T11:34:44.178Z,11.80
2018-02-19T11:35:44.166Z,12.20
2018-02-19T11:36:44.161Z,11.50
2018-02-19T11:37:44.155Z,11.60
2018-02-19T11:38:44.150Z,12.10
2018-02-19T11:39:44.145Z,11.70
2018-02-19T11:40:44.135Z,12.00
2018-02-19T11:41:44.127Z,12.20
2018-02-19T11:42:44.125Z,12.30
2018-02-19T11:43:44.118Z,12.10
2018-02-19T11:44:44.113Z,13.20
2018-02-19T11:45:44.113Z,12.20
2018-02-19T11:46:44.157Z,12.60
2018-02-19T11:47:44.096Z,12.40
2018-02-19T11:48:44.093Z,11.40
2018-02-19T11:49:44.090Z,11.70
2018-02-19T11:50:44.091Z,11.30
2018-02-19T11:51:44.082Z,12.20
2018-02-19T11:52:44.130Z,11.40
2018-02-19T11:53:44.075Z,11.90
2018-02-19T11:54:44.078Z,11.70
2018-02-19T11:55:44.070Z,12.10
2018-02-19T11:56:44.167Z,11.70
2018-02-19T11:57:44.066Z,13.30
2018-02-19T11:58:44.316Z,12.50
2018-02-19T11:59:44.064Z,12.00
2018-02-19T12:00:44.063Z,11.80
2018-02-19T12:01:44.068Z,11.80
2018-02-19T12:02:44.106Z,12.20
2018-02-19T12:03:44.305Z,12.60
2018-02-19T12:04:44.051Z,13.20
2018-02-19T12:05:44.053Z,12.30
2018-02-19T12:06:44.053Z,13.10
2018-02-19T12:07:44.045Z,13.30
2018-02-19T12:08:44.573Z,13.00
2018-02-19T12:09:44.042Z,13.00
2018-02-19T12:10:44.038Z,13.20
2018-02-19T12:11:44.037Z,13.70
2018-02-19T12:12:44.031Z,13.00
2018-02-19T12:13:44.381Z,12.90
2018-02-19T12:14:44.023Z,12.90
2018-02-19T12:15:44.030Z,12.90
2018-02-19T12:16:44.014Z,12.80
2018-02-19T12:17:44.017Z,13.20
2018-02-19T12:18:44.009Z,13.10
2018-02-19T12:19:44.006Z,12.80
2018-02-19T12:20:43.999Z,13.20
2018-02-19T12:21:43.991Z,13.20
2018-02-19T12:22:43.990Z,12.50
2018-02-19T12:23:43.985Z,13.90
2018-02-19T12:24:43.977Z,13.30
2018-02-19T12:25:44.023Z,13.20
2018-02-19T12:26:43.967Z,13.70
2018-02-19T12:27:43.965Z,13.60
2018-02-19T12:28:44.213Z,13.30
2018-02-19T12:29:43.953Z,13.30
2018-02-19T12:30:43.944Z,13.70
2018-02-19T12:31:43.945Z,13.50
2018-02-19T12:32:43.933Z,13.90
2018-02-19T12:33:43.935Z,13.20
2018-02-19T12:34:43.927Z,13.80
2018-02-19T12:35:43.941Z,14.10
2018-02-19T12:36:43.906Z,13.70
2018-02-19T12:37:43.917Z,14.00
2018-02-19T12:38:43.892Z,14.20
2018-02-19T12:39:44.131Z,14.50
2018-02-19T12:40:43.875Z,14.40
2018-02-19T12:41:43.869Z,14.50
2018-02-19T12:42:43.861Z,14.50
2018-02-19T12:43:43.854Z,13.90
2018-02-19T12:44:43.843Z,13.70
2018-02-19T12:45:43.893Z,14.20
2018-02-19T12:46:43.830Z,13.80
2018-02-19T12:47:43.826Z,13.70
2018-02-19T12:48:43.811Z,13.10
2018-02-19T12:49:43.808Z,14.20
2018-02-19T12:50:43.795Z,13.90
2018-02-19T12:51:43.791Z,14.40
2018-02-19T12:52:43.789Z,14.00
2018-02-19T12:53:43.779Z,14.20
2018-02-19T12:54:43.767Z,13.60
2018-02-19T12:55:43.757Z,13.50
2018-02-19T12:56:43.754Z,13.50
2018-02-19T12:57:43.742Z,13.50
2018-02-19T12:58:43.740Z,13.30
2018-02-19T12:59:43.725Z,13.70
2018-02-19T13:00:43.721Z,13.40
2018-02-19T13:01:43.714Z,13.50
2018-02-19T13:02:43.706Z,13.40